sensor_id;sensor_type;location;lat;lon;timestamp;P1;durP1;ratioP1;P2;durP2;ratioP2
18072;SDS011;9161;47.348;9.648;2023-03-21T00:04:20;9.23;;;4.53;;
18072;SDS011;9161;47.348;9.648;2023-03-21T00:09:24;8.10;;;4.93;;
18072;SDS011;9161;47.348;9.648;2023-03-21T00:14:28;6.83;;;4.20;;
18072;SDS011;9161;47.348;9.648;2023-03-21T00:19:30;8.63;;;4.70;;
18072;SDS011;9161;47.348;9.648;2023-03-21T00:24:37;8.60;;;4.07;;
18072;SDS011;9161;47.348;9.648;2023-03-21T00:29:41;9.50;;;4.53;;
18072;SDS011;9161;47.348;9.648;2023-03-21T00:34:43;6.93;;;3.90;;
18072;SDS011;9161;47.348;9.648;2023-03-21T00:40:01;7.40;;;3.63;;
18072;SDS011;9161;47.348;9.648;2023-03-21T00:45:23;7.33;;;3.87;;
18072;SDS011;9161;47.348;9.648;2023-03-21T00:50:25;7.43;;;3.30;;
18072;SDS011;9161;47.348;9.648;2023-03-21T00:55:28;5.87;;;3.53;;
18072;SDS011;9161;47.348;9.648;2023-03-21T01:00:32;6.80;;;4.00;;
18072;SDS011;9161;47.348;9.648;2023-03-21T01:05:37;4.80;;;3.00;;
18072;SDS011;9161;47.348;9.648;2023-03-21T01:11:03;6.20;;;3.50;;
18072;SDS011;9161;47.348;9.648;2023-03-21T01:16:09;7.17;;;3.67;;
18072;SDS011;9161;47.348;9.648;2023-03-21T01:21:12;8.27;;;2.97;;
18072;SDS011;9161;47.348;9.648;2023-03-21T01:26:15;3.97;;;2.67;;
18072;SDS011;9161;47.348;9.648;2023-03-21T01:31:18;5.43;;;3.33;;
18072;SDS011;9161;47.348;9.648;2023-03-21T01:36:22;5.47;;;2.33;;
18072;SDS011;9161;47.348;9.648;2023-03-21T01:41:27;4.07;;;2.40;;
18072;SDS011;9161;47.348;9.648;2023-03-21T01:46:47;4.90;;;2.07;;
18072;SDS011;9161;47.348;9.648;2023-03-21T01:52:12;3.20;;;1.63;;
18072;SDS011;9161;47.348;9.648;2023-03-21T01:57:29;2.37;;;1.50;;
18072;SDS011;9161;47.348;9.648;2023-03-21T02:02:45;3.90;;;1.80;;
18072;SDS011;9161;47.348;9.648;2023-03-21T02:07:59;4.13;;;2.07;;
18072;SDS011;9161;47.348;9.648;2023-03-21T02:13:03;3.57;;;2.20;;
18072;SDS011;9161;47.348;9.648;2023-03-21T02:18:10;3.93;;;2.03;;
18072;SDS011;9161;47.348;9.648;2023-03-21T02:23:29;3.27;;;1.90;;
18072;SDS011;9161;47.348;9.648;2023-03-21T02:28:59;3.73;;;1.93;;
18072;SDS011;9161;47.348;9.648;2023-03-21T02:34:14;2.87;;;1.77;;
18072;SDS011;9161;47.348;9.648;2023-03-21T02:39:44;3.03;;;1.80;;
18072;SDS011;9161;47.348;9.648;2023-03-21T02:44:55;4.03;;;2.10;;
18072;SDS011;9161;47.348;9.648;2023-03-21T02:50:03;7.20;;;2.23;;
18072;SDS011;9161;47.348;9.648;2023-03-21T02:55:12;4.93;;;2.37;;
18072;SDS011;9161;47.348;9.648;2023-03-21T03:00:19;3.50;;;1.90;;
18072;SDS011;9161;47.348;9.648;2023-03-21T03:05:25;5.73;;;2.10;;
18072;SDS011;9161;47.348;9.648;2023-03-21T03:10:32;3.50;;;1.80;;
18072;SDS011;9161;47.348;9.648;2023-03-21T03:15:44;2.80;;;2.00;;
18072;SDS011;9161;47.348;9.648;2023-03-21T03:20:58;4.53;;;2.23;;
18072;SDS011;9161;47.348;9.648;2023-03-21T03:26:10;5.03;;;2.50;;
18072;SDS011;9161;47.348;9.648;2023-03-21T03:31:17;3.30;;;2.20;;
18072;SDS011;9161;47.348;9.648;2023-03-21T03:36:26;3.43;;;2.13;;
18072;SDS011;9161;47.348;9.648;2023-03-21T03:41:36;5.53;;;2.70;;
18072;SDS011;9161;47.348;9.648;2023-03-21T03:47:04;4.43;;;3.07;;
18072;SDS011;9161;47.348;9.648;2023-03-21T03:52:17;5.40;;;2.87;;
18072;SDS011;9161;47.348;9.648;2023-03-21T03:57:25;4.43;;;2.90;;
18072;SDS011;9161;47.348;9.648;2023-03-21T04:02:28;5.60;;;3.20;;
18072;SDS011;9161;47.348;9.648;2023-03-21T04:07:31;5.23;;;2.63;;
18072;SDS011;9161;47.348;9.648;2023-03-21T04:12:35;5.13;;;2.60;;
18072;SDS011;9161;47.348;9.648;2023-03-21T04:17:37;3.07;;;2.07;;
18072;SDS011;9161;47.348;9.648;2023-03-21T04:22:39;7.23;;;2.90;;
18072;SDS011;9161;47.348;9.648;2023-03-21T04:27:43;5.53;;;2.70;;
18072;SDS011;9161;47.348;9.648;2023-03-21T04:32:47;2.87;;;2.20;;
18072;SDS011;9161;47.348;9.648;2023-03-21T04:37:53;4.90;;;2.50;;
18072;SDS011;9161;47.348;9.648;2023-03-21T04:42:57;4.73;;;3.20;;
18072;SDS011;9161;47.348;9.648;2023-03-21T04:48:00;6.07;;;2.60;;
18072;SDS011;9161;47.348;9.648;2023-03-21T04:53:03;4.70;;;2.40;;
18072;SDS011;9161;47.348;9.648;2023-03-21T04:58:07;5.57;;;2.90;;
18072;SDS011;9161;47.348;9.648;2023-03-21T05:03:09;7.77;;;2.93;;
18072;SDS011;9161;47.348;9.648;2023-03-21T05:08:18;5.83;;;2.90;;
18072;SDS011;9161;47.348;9.648;2023-03-21T05:13:22;6.20;;;3.00;;
18072;SDS011;9161;47.348;9.648;2023-03-21T05:18:24;7.20;;;3.30;;
18072;SDS011;9161;47.348;9.648;2023-03-21T05:23:27;8.03;;;3.50;;
18072;SDS011;9161;47.348;9.648;2023-03-21T05:28:32;7.37;;;3.20;;
18072;SDS011;9161;47.348;9.648;2023-03-21T05:33:35;6.93;;;3.63;;
18072;SDS011;9161;47.348;9.648;2023-03-21T05:38:38;6.13;;;2.83;;
18072;SDS011;9161;47.348;9.648;2023-03-21T05:43:46;4.40;;;2.80;;
18072;SDS011;9161;47.348;9.648;2023-03-21T05:48:48;8.50;;;3.33;;
18072;SDS011;9161;47.348;9.648;2023-03-21T05:53:51;4.50;;;3.13;;
18072;SDS011;9161;47.348;9.648;2023-03-21T05:58:55;6.43;;;3.60;;
18072;SDS011;9161;47.348;9.648;2023-03-21T06:03:57;8.70;;;2.60;;
18072;SDS011;9161;47.348;9.648;2023-03-21T06:08:59;4.53;;;2.93;;
18072;SDS011;9161;47.348;9.648;2023-03-21T06:14:03;5.57;;;3.20;;
18072;SDS011;9161;47.348;9.648;2023-03-21T06:19:06;5.03;;;2.80;;
18072;SDS011;9161;47.348;9.648;2023-03-21T06:24:08;4.97;;;2.70;;
18072;SDS011;9161;47.348;9.648;2023-03-21T06:29:12;3.90;;;2.47;;
18072;SDS011;9161;47.348;9.648;2023-03-21T06:34:15;7.07;;;2.53;;
18072;SDS011;9161;47.348;9.648;2023-03-21T06:39:17;11.23;;;4.27;;
18072;SDS011;9161;47.348;9.648;2023-03-21T06:44:20;10.47;;;3.70;;
18072;SDS011;9161;47.348;9.648;2023-03-21T06:49:23;11.63;;;4.13;;
18072;SDS011;9161;47.348;9.648;2023-03-21T06:54:26;9.73;;;3.90;;
18072;SDS011;9161;47.348;9.648;2023-03-21T06:59:31;8.30;;;4.17;;
18072;SDS011;9161;47.348;9.648;2023-03-21T07:04:33;9.70;;;4.73;;
18072;SDS011;9161;47.348;9.648;2023-03-21T07:09:36;11.83;;;4.73;;
18072;SDS011;9161;47.348;9.648;2023-03-21T07:14:39;9.37;;;4.47;;
18072;SDS011;9161;47.348;9.648;2023-03-21T07:19:41;11.27;;;4.50;;
18072;SDS011;9161;47.348;9.648;2023-03-21T07:24:44;9.83;;;3.80;;
18072;SDS011;9161;47.348;9.648;2023-03-21T07:30:03;4.97;;;3.10;;
18072;SDS011;9161;47.348;9.648;2023-03-21T07:35:07;10.40;;;4.20;;
18072;SDS011;9161;47.348;9.648;2023-03-21T07:40:12;12.37;;;4.50;;
18072;SDS011;9161;47.348;9.648;2023-03-21T07:45:16;9.90;;;4.50;;
18072;SDS011;9161;47.348;9.648;2023-03-21T07:50:21;11.03;;;4.07;;
18072;SDS011;9161;47.348;9.648;2023-03-21T07:55:23;7.80;;;3.50;;
18072;SDS011;9161;47.348;9.648;2023-03-21T08:00:27;8.50;;;3.10;;
18072;SDS011;9161;47.348;9.648;2023-03-21T08:05:32;7.90;;;4.07;;
18072;SDS011;9161;47.348;9.648;2023-03-21T08:10:36;5.03;;;2.77;;
18072;SDS011;9161;47.348;9.648;2023-03-21T08:15:40;5.83;;;3.27;;
18072;SDS011;9161;47.348;9.648;2023-03-21T08:20:42;8.60;;;3.43;;
18072;SDS011;9161;47.348;9.648;2023-03-21T08:25:44;7.07;;;3.10;;
18072;SDS011;9161;47.348;9.648;2023-03-21T08:30:48;6.90;;;2.77;;
18072;SDS011;9161;47.348;9.648;2023-03-21T08:35:50;7.17;;;2.90;;
18072;SDS011;9161;47.348;9.648;2023-03-21T08:40:53;2.90;;;2.00;;
18072;SDS011;9161;47.348;9.648;2023-03-21T08:46:00;4.43;;;1.90;;
18072;SDS011;9161;47.348;9.648;2023-03-21T08:51:03;3.37;;;2.07;;
18072;SDS011;9161;47.348;9.648;2023-03-21T08:56:06;3.87;;;2.03;;
18072;SDS011;9161;47.348;9.648;2023-03-21T09:01:11;6.63;;;2.57;;
18072;SDS011;9161;47.348;9.648;2023-03-21T09:06:15;5.03;;;2.07;;
18072;SDS011;9161;47.348;9.648;2023-03-21T09:11:17;9.63;;;2.13;;
18072;SDS011;9161;47.348;9.648;2023-03-21T09:16:21;3.60;;;2.27;;
18072;SDS011;9161;47.348;9.648;2023-03-21T09:21:24;7.53;;;3.57;;
18072;SDS011;9161;47.348;9.648;2023-03-21T09:26:27;6.47;;;2.60;;
18072;SDS011;9161;47.348;9.648;2023-03-21T09:31:32;4.93;;;2.17;;
18072;SDS011;9161;47.348;9.648;2023-03-21T09:36:34;3.78;;;2.03;;
18072;SDS011;9161;47.348;9.648;2023-03-21T09:41:47;3.42;;;1.55;;
18072;SDS011;9161;47.348;9.648;2023-03-21T09:47:03;4.45;;;1.50;;
18072;SDS011;9161;47.348;9.648;2023-03-21T09:52:17;3.45;;;1.30;;
18072;SDS011;9161;47.348;9.648;2023-03-21T09:57:28;4.07;;;1.53;;
18072;SDS011;9161;47.348;9.648;2023-03-21T10:02:35;3.87;;;1.30;;
18072;SDS011;9161;47.348;9.648;2023-03-21T10:07:41;4.00;;;1.40;;
18072;SDS011;9161;47.348;9.648;2023-03-21T10:12:46;3.20;;;1.23;;
18072;SDS011;9161;47.348;9.648;2023-03-21T10:17:55;4.00;;;1.53;;
18072;SDS011;9161;47.348;9.648;2023-03-21T10:23:02;3.45;;;1.20;;
18072;SDS011;9161;47.348;9.648;2023-03-21T10:28:07;2.72;;;1.40;;
18072;SDS011;9161;47.348;9.648;2023-03-21T10:33:17;2.50;;;1.50;;
18072;SDS011;9161;47.348;9.648;2023-03-21T10:38:24;5.03;;;1.55;;
18072;SDS011;9161;47.348;9.648;2023-03-21T10:43:31;4.50;;;1.40;;
18072;SDS011;9161;47.348;9.648;2023-03-21T10:48:39;2.65;;;1.42;;
18072;SDS011;9161;47.348;9.648;2023-03-21T10:53:47;4.57;;;1.63;;
18072;SDS011;9161;47.348;9.648;2023-03-21T10:58:53;2.25;;;1.20;;
18072;SDS011;9161;47.348;9.648;2023-03-21T11:04:04;3.47;;;1.50;;
18072;SDS011;9161;47.348;9.648;2023-03-21T11:09:12;3.15;;;1.20;;
18072;SDS011;9161;47.348;9.648;2023-03-21T11:14:23;3.25;;;1.25;;
18072;SDS011;9161;47.348;9.648;2023-03-21T11:19:36;1.98;;;1.23;;
18072;SDS011;9161;47.348;9.648;2023-03-21T11:24:38;4.25;;;1.33;;
18072;SDS011;9161;47.348;9.648;2023-03-21T11:29:44;4.43;;;1.95;;
18072;SDS011;9161;47.348;9.648;2023-03-21T11:34:50;2.72;;;1.33;;
18072;SDS011;9161;47.348;9.648;2023-03-21T11:40:04;2.75;;;1.70;;
18072;SDS011;9161;47.348;9.648;2023-03-21T11:45:12;2.78;;;1.73;;
18072;SDS011;9161;47.348;9.648;2023-03-21T11:50:23;3.85;;;2.50;;
18072;SDS011;9161;47.348;9.648;2023-03-21T11:55:35;3.38;;;2.50;;
18072;SDS011;9161;47.348;9.648;2023-03-21T12:00:47;3.53;;;2.67;;
18072;SDS011;9161;47.348;9.648;2023-03-21T12:05:59;5.47;;;3.05;;
18072;SDS011;9161;47.348;9.648;2023-03-21T12:11:05;4.35;;;2.67;;
18072;SDS011;9161;47.348;9.648;2023-03-21T12:16:18;3.67;;;2.45;;
18072;SDS011;9161;47.348;9.648;2023-03-21T12:21:37;2.70;;;2.13;;
18072;SDS011;9161;47.348;9.648;2023-03-21T12:26:50;3.60;;;2.13;;
18072;SDS011;9161;47.348;9.648;2023-03-21T12:32:01;4.43;;;2.20;;
18072;SDS011;9161;47.348;9.648;2023-03-21T12:37:14;2.80;;;1.95;;
18072;SDS011;9161;47.348;9.648;2023-03-21T12:42:34;2.30;;;1.63;;
18072;SDS011;9161;47.348;9.648;2023-03-21T12:48:00;4.70;;;1.98;;
18072;SDS011;9161;47.348;9.648;2023-03-21T12:53:25;6.47;;;1.80;;
18072;SDS011;9161;47.348;9.648;2023-03-21T12:58:37;4.28;;;2.70;;
18072;SDS011;9161;47.348;9.648;2023-03-21T13:03:45;2.28;;;1.92;;
18072;SDS011;9161;47.348;9.648;2023-03-21T13:08:54;3.80;;;1.90;;
18072;SDS011;9161;47.348;9.648;2023-03-21T13:14:02;3.13;;;2.00;;
18072;SDS011;9161;47.348;9.648;2023-03-21T13:19:10;2.20;;;1.40;;
18072;SDS011;9161;47.348;9.648;2023-03-21T13:24:25;1.83;;;1.40;;
18072;SDS011;9161;47.348;9.648;2023-03-21T13:29:30;2.33;;;1.60;;
18072;SDS011;9161;47.348;9.648;2023-03-21T13:34:37;2.33;;;1.52;;
18072;SDS011;9161;47.348;9.648;2023-03-21T13:39:43;3.10;;;2.10;;
18072;SDS011;9161;47.348;9.648;2023-03-21T13:44:47;2.63;;;2.00;;
18072;SDS011;9161;47.348;9.648;2023-03-21T13:55:26;2.15;;;1.67;;
18072;SDS011;9161;47.348;9.648;2023-03-21T14:00:29;3.13;;;1.75;;
18072;SDS011;9161;47.348;9.648;2023-03-21T14:05:34;3.45;;;1.90;;
18072;SDS011;9161;47.348;9.648;2023-03-21T14:10:40;4.93;;;2.03;;
18072;SDS011;9161;47.348;9.648;2023-03-21T14:15:46;4.80;;;2.00;;
18072;SDS011;9161;47.348;9.648;2023-03-21T14:20:56;2.08;;;1.70;;
18072;SDS011;9161;47.348;9.648;2023-03-21T14:26:02;2.30;;;1.75;;
18072;SDS011;9161;47.348;9.648;2023-03-21T14:31:11;3.35;;;2.10;;
18072;SDS011;9161;47.348;9.648;2023-03-21T14:36:17;4.28;;;1.90;;
18072;SDS011;9161;47.348;9.648;2023-03-21T14:41:24;2.42;;;1.80;;
18072;SDS011;9161;47.348;9.648;2023-03-21T14:46:27;2.58;;;2.05;;
18072;SDS011;9161;47.348;9.648;2023-03-21T14:51:30;4.78;;;2.47;;
18072;SDS011;9161;47.348;9.648;2023-03-21T14:56:33;3.90;;;2.30;;
18072;SDS011;9161;47.348;9.648;2023-03-21T15:01:38;3.80;;;2.30;;
18072;SDS011;9161;47.348;9.648;2023-03-21T15:06:47;3.78;;;3.00;;
18072;SDS011;9161;47.348;9.648;2023-03-21T15:11:53;4.47;;;2.80;;
18072;SDS011;9161;47.348;9.648;2023-03-21T15:16:57;5.25;;;3.10;;
18072;SDS011;9161;47.348;9.648;2023-03-21T15:22:03;4.82;;;3.05;;
18072;SDS011;9161;47.348;9.648;2023-03-21T15:27:16;6.30;;;3.05;;
18072;SDS011;9161;47.348;9.648;2023-03-21T15:32:21;4.53;;;3.70;;
18072;SDS011;9161;47.348;9.648;2023-03-21T15:37:26;11.00;;;4.00;;
18072;SDS011;9161;47.348;9.648;2023-03-21T15:42:31;8.13;;;3.93;;
18072;SDS011;9161;47.348;9.648;2023-03-21T15:47:38;7.30;;;4.47;;
18072;SDS011;9161;47.348;9.648;2023-03-21T15:52:50;4.75;;;3.83;;
18072;SDS011;9161;47.348;9.648;2023-03-21T15:57:59;6.33;;;4.20;;
18072;SDS011;9161;47.348;9.648;2023-03-21T16:03:07;5.57;;;4.10;;
18072;SDS011;9161;47.348;9.648;2023-03-21T16:08:17;8.80;;;4.63;;
18072;SDS011;9161;47.348;9.648;2023-03-21T16:13:22;7.67;;;4.27;;
18072;SDS011;9161;47.348;9.648;2023-03-21T16:18:24;8.33;;;4.43;;
18072;SDS011;9161;47.348;9.648;2023-03-21T16:23:28;9.53;;;4.50;;
18072;SDS011;9161;47.348;9.648;2023-03-21T16:28:32;6.83;;;4.53;;
18072;SDS011;9161;47.348;9.648;2023-03-21T16:33:34;6.97;;;4.73;;
18072;SDS011;9161;47.348;9.648;2023-03-21T16:38:37;7.23;;;4.50;;
18072;SDS011;9161;47.348;9.648;2023-03-21T16:43:41;7.87;;;4.63;;
18072;SDS011;9161;47.348;9.648;2023-03-21T16:48:45;11.33;;;5.30;;
18072;SDS011;9161;47.348;9.648;2023-03-21T16:53:48;12.07;;;4.67;;
18072;SDS011;9161;47.348;9.648;2023-03-21T16:58:53;7.97;;;4.60;;
18072;SDS011;9161;47.348;9.648;2023-03-21T17:03:56;6.83;;;4.47;;
18072;SDS011;9161;47.348;9.648;2023-03-21T17:09:00;9.03;;;5.00;;
18072;SDS011;9161;47.348;9.648;2023-03-21T17:14:05;8.20;;;4.60;;
18072;SDS011;9161;47.348;9.648;2023-03-21T17:19:10;7.43;;;4.60;;
18072;SDS011;9161;47.348;9.648;2023-03-21T17:24:14;7.67;;;4.43;;
18072;SDS011;9161;47.348;9.648;2023-03-21T17:29:18;10.17;;;5.50;;
18072;SDS011;9161;47.348;9.648;2023-03-21T17:34:21;7.77;;;4.77;;
18072;SDS011;9161;47.348;9.648;2023-03-21T17:39:25;16.27;;;8.03;;
18072;SDS011;9161;47.348;9.648;2023-03-21T17:44:29;13.70;;;7.77;;
18072;SDS011;9161;47.348;9.648;2023-03-21T17:49:32;8.67;;;5.37;;
18072;SDS011;9161;47.348;9.648;2023-03-21T17:54:35;13.33;;;5.23;;
18072;SDS011;9161;47.348;9.648;2023-03-21T17:59:39;10.90;;;6.63;;
18072;SDS011;9161;47.348;9.648;2023-03-21T18:04:43;9.77;;;6.40;;
18072;SDS011;9161;47.348;9.648;2023-03-21T18:09:46;12.77;;;5.33;;
18072;SDS011;9161;47.348;9.648;2023-03-21T18:14:51;8.90;;;5.03;;
18072;SDS011;9161;47.348;9.648;2023-03-21T18:19:56;10.23;;;5.43;;
18072;SDS011;9161;47.348;9.648;2023-03-21T18:25:01;9.73;;;5.10;;
18072;SDS011;9161;47.348;9.648;2023-03-21T18:30:09;10.27;;;4.83;;
18072;SDS011;9161;47.348;9.648;2023-03-21T18:35:38;8.43;;;4.60;;
18072;SDS011;9161;47.348;9.648;2023-03-21T18:40:42;11.03;;;6.30;;
18072;SDS011;9161;47.348;9.648;2023-03-21T18:45:48;9.30;;;5.10;;
18072;SDS011;9161;47.348;9.648;2023-03-21T18:50:55;15.87;;;8.10;;
18072;SDS011;9161;47.348;9.648;2023-03-21T18:55:59;15.90;;;8.03;;
18072;SDS011;9161;47.348;9.648;2023-03-21T19:01:10;15.93;;;7.93;;
18072;SDS011;9161;47.348;9.648;2023-03-21T19:06:13;14.63;;;6.93;;
18072;SDS011;9161;47.348;9.648;2023-03-21T19:11:17;15.37;;;7.40;;
18072;SDS011;9161;47.348;9.648;2023-03-21T19:16:24;14.13;;;7.23;;
18072;SDS011;9161;47.348;9.648;2023-03-21T19:21:44;12.97;;;6.40;;
18072;SDS011;9161;47.348;9.648;2023-03-21T19:26:53;11.70;;;6.83;;
18072;SDS011;9161;47.348;9.648;2023-03-21T19:31:59;12.67;;;7.20;;
18072;SDS011;9161;47.348;9.648;2023-03-21T19:37:03;17.60;;;8.27;;
18072;SDS011;9161;47.348;9.648;2023-03-21T19:42:10;10.47;;;5.60;;
18072;SDS011;9161;47.348;9.648;2023-03-21T19:47:19;12.13;;;7.17;;
18072;SDS011;9161;47.348;9.648;2023-03-21T19:52:23;12.67;;;5.87;;
18072;SDS011;9161;47.348;9.648;2023-03-21T19:57:27;14.57;;;7.13;;
18072;SDS011;9161;47.348;9.648;2023-03-21T20:02:31;14.67;;;6.77;;
18072;SDS011;9161;47.348;9.648;2023-03-21T20:07:36;12.10;;;6.43;;
18072;SDS011;9161;47.348;9.648;2023-03-21T20:12:43;16.47;;;7.33;;
18072;SDS011;9161;47.348;9.648;2023-03-21T20:17:48;13.33;;;5.90;;
18072;SDS011;9161;47.348;9.648;2023-03-21T20:22:54;12.30;;;5.20;;
18072;SDS011;9161;47.348;9.648;2023-03-21T20:28:07;11.10;;;5.50;;
18072;SDS011;9161;47.348;9.648;2023-03-21T20:33:25;9.70;;;5.20;;
18072;SDS011;9161;47.348;9.648;2023-03-21T20:38:30;12.07;;;5.47;;
18072;SDS011;9161;47.348;9.648;2023-03-21T20:43:35;11.30;;;6.07;;
18072;SDS011;9161;47.348;9.648;2023-03-21T20:49:03;10.70;;;5.33;;
18072;SDS011;9161;47.348;9.648;2023-03-21T20:54:13;10.93;;;5.00;;
18072;SDS011;9161;47.348;9.648;2023-03-21T20:59:34;15.40;;;7.33;;
18072;SDS011;9161;47.348;9.648;2023-03-21T21:05:30;10.53;;;5.80;;
18072;SDS011;9161;47.348;9.648;2023-03-21T21:11:13;10.40;;;5.87;;
18072;SDS011;9161;47.348;9.648;2023-03-21T21:16:50;12.87;;;5.30;;
18072;SDS011;9161;47.348;9.648;2023-03-21T21:21:55;12.30;;;5.43;;
18072;SDS011;9161;47.348;9.648;2023-03-21T21:26:57;13.50;;;5.13;;
18072;SDS011;9161;47.348;9.648;2023-03-21T21:32:00;11.87;;;5.10;;
18072;SDS011;9161;47.348;9.648;2023-03-21T21:37:05;11.47;;;4.67;;
18072;SDS011;9161;47.348;9.648;2023-03-21T21:42:07;8.63;;;4.33;;
18072;SDS011;9161;47.348;9.648;2023-03-21T21:47:10;10.73;;;4.37;;
18072;SDS011;9161;47.348;9.648;2023-03-21T21:52:14;8.40;;;3.40;;
18072;SDS011;9161;47.348;9.648;2023-03-21T21:57:21;8.10;;;3.63;;
18072;SDS011;9161;47.348;9.648;2023-03-21T22:02:23;9.57;;;4.30;;
18072;SDS011;9161;47.348;9.648;2023-03-21T22:07:27;8.97;;;3.73;;
18072;SDS011;9161;47.348;9.648;2023-03-21T22:12:31;7.67;;;3.50;;
18072;SDS011;9161;47.348;9.648;2023-03-21T22:17:34;8.03;;;3.60;;
18072;SDS011;9161;47.348;9.648;2023-03-21T22:22:38;5.80;;;3.07;;
18072;SDS011;9161;47.348;9.648;2023-03-21T22:27:41;7.67;;;3.93;;
18072;SDS011;9161;47.348;9.648;2023-03-21T22:32:44;8.80;;;3.83;;
18072;SDS011;9161;47.348;9.648;2023-03-21T22:38:02;4.87;;;2.90;;
18072;SDS011;9161;47.348;9.648;2023-03-21T22:43:04;5.17;;;2.57;;
18072;SDS011;9161;47.348;9.648;2023-03-21T22:48:07;4.47;;;2.50;;
18072;SDS011;9161;47.348;9.648;2023-03-21T22:53:11;4.03;;;2.70;;
18072;SDS011;9161;47.348;9.648;2023-03-21T22:58:14;7.43;;;3.27;;
18072;SDS011;9161;47.348;9.648;2023-03-21T23:03:16;7.50;;;2.83;;
18072;SDS011;9161;47.348;9.648;2023-03-21T23:08:19;5.67;;;2.90;;
18072;SDS011;9161;47.348;9.648;2023-03-21T23:13:23;6.90;;;2.67;;
18072;SDS011;9161;47.348;9.648;2023-03-21T23:18:25;7.90;;;2.50;;
18072;SDS011;9161;47.348;9.648;2023-03-21T23:23:29;6.33;;;2.33;;
18072;SDS011;9161;47.348;9.648;2023-03-21T23:28:35;7.77;;;3.33;;
18072;SDS011;9161;47.348;9.648;2023-03-21T23:33:38;8.03;;;3.20;;
18072;SDS011;9161;47.348;9.648;2023-03-21T23:38:42;8.57;;;3.77;;
18072;SDS011;9161;47.348;9.648;2023-03-21T23:43:45;5.23;;;2.80;;
18072;SDS011;9161;47.348;9.648;2023-03-21T23:48:48;7.10;;;3.60;;
18072;SDS011;9161;47.348;9.648;2023-03-21T23:53:52;7.27;;;3.60;;
18072;SDS011;9161;47.348;9.648;2023-03-21T23:58:55;9.57;;;3.60;;
